Latest Weather Observations for Trangie

IDN60801

Issued at 8:02 pm EST Friday 23 June 2017 (issued every 30 minutes, with the page automatically refreshed every 10 minutes)

About weather observations | Map of weather stations | Latest weather observations for NSW | Other Formats
Station Details ID: 051049 Name: TRANGIE RESEARCH STATION AWS Lat: -31.99 Lon: 147.95 Height: 215.0 m
Data from the previous 72 hours. | See also: Recent months at Trangie
Date/Time
EST
Temp
°C
App
Temp
°C
Dew
Point
°C
Rel
Hum
%
Delta-T
°C
Wind Press
QNH
hPa
Press
MSL
hPa
Rain since
9am
mm
Dir  Spd
km/h
Gust
km/h
Spd
kts
Gust
kts
23/08:00pm 7.9 5.2 0.2 58 3.1 WNW 4 6 2 3 1019.2 1019.4 0.0
23/07:30pm 9.3 7.3 0.2 53 3.7 CALM 0 0 0 0 1019.0 1019.2 0.0
23/07:00pm 10.4 8.5 0.7 51 4.0 CALM 0 0 0 0 1018.9 1019.1 0.0
23/06:30pm 11.0 9.1 0.4 48 4.4 CALM 0 0 0 0 1018.9 1019.1 0.0
23/06:00pm 11.9 9.0 1.3 48 4.5 SW 6 7 3 4 1018.8 1019.0 0.0
23/05:30pm 12.4 8.5 1.1 46 4.8 WSW 11 13 6 7 1018.8 1019.0 0.0
23/05:00pm 15.0 10.8 1.9 41 5.8 W 13 15 7 8 1018.4 1018.6 0.0
23/04:30pm 16.9 12.4 2.1 37 6.7 W 15 20 8 11 1018.3 1018.5 0.0
23/04:00pm 18.4 13.2 2.3 34 7.4 W 19 24 10 13 1018.5 1018.7 0.0
23/03:30pm 18.8 13.1 2.6 34 7.5 W 22 30 12 16 1018.6 1018.8 0.0
23/03:00pm 18.8 11.8 1.8 32 7.8 WNW 28 41 15 22 1018.6 1018.8 0.0
23/02:30pm 19.9 13.7 2.3 31 8.2 WNW 24 37 13 20 1018.5 1018.7 0.0
23/02:00pm 19.5 13.0 2.4 32 8.0 W 26 35 14 19 1018.6 1018.8 0.0
23/01:30pm 19.9 14.5 2.7 32 8.1 WNW 20 32 11 17 1018.7 1018.9 0.0
23/01:00pm 19.1 13.4 2.9 34 7.6 WNW 22 32 12 17 1019.2 1019.4 0.0
23/12:30pm 19.8 14.9 4.3 36 7.5 NW 19 26 10 14 1019.7 1019.9 0.0
23/12:00pm 18.5 13.6 3.9 38 6.9 NW 19 28 10 15 1020.6 1020.8 0.0
23/11:30am 17.9 12.9 3.8 39 6.7 NW 19 22 10 12 1021.0 1021.2 0.0
23/11:00am 17.3 13.1 3.9 41 6.3 NNW 15 19 8 10 1021.8 1022.0 0.0
23/10:30am 15.8 13.1 5.4 50 5.0 N 9 15 5 8 1022.0 1022.2 0.0
23/10:00am 14.0 11.3 5.4 56 4.1 N 9 11 5 6 1022.5 1022.8 0.0
23/09:30am 13.6 11.0 6.0 60 3.7 N 9 11 5 6 1022.9 1023.2 0.0
23/09:00am 11.6 8.0 4.8 63 3.1 N 13 17 7 9 1022.7 1023.0 0.0
23/08:30am 10.7 8.4 5.5 70 2.4 NNE 7 9 4 5 1022.6 1022.9 0.0
23/08:00am 7.7 4.9 5.2 84 1.1 NE 9 13 5 7 1022.2 1022.5 0.0
23/07:30am 4.3 2.4 2.8 90 0.6 NNE 2 7 1 4 1022.4 1022.7 0.0
23/07:00am 4.1 2.5 2.6 90 0.6 CALM 0 0 0 0 1021.8 1022.0 0.0
23/06:30am 3.8 1.0 2.2 89 0.6 N 6 6 3 3 1021.7 1021.9 0.0
23/06:00am 4.0 2.0 2.4 89 0.6 NE 2 6 1 3 1021.6 1021.8 0.0
23/05:30am 3.9 2.3 2.4 90 0.6 CALM 0 0 0 0 1021.5 1021.7 0.0
23/05:00am 4.0 0.7 2.7 91 0.5 NNE 9 11 5 6 1021.0 1021.2 0.0
23/04:30am 3.9 1.2 2.4 90 0.6 N 6 7 3 4 1021.5 1021.7 0.0
23/04:00am 3.4 0.9 1.4 87 0.8 N 4 7 2 4 1021.8 1022.0 0.0
23/03:30am 5.1 3.7 3.4 89 0.7 CALM 0 0 0 0 1021.7 1021.9 0.0
23/03:00am 4.0 2.4 2.2 88 0.7 CALM 0 0 0 0 1022.1 1022.4 0.0
23/02:30am 4.0 1.2 2.2 88 0.7 NE 6 7 3 4 1022.0 1022.2 0.0
23/02:00am 4.3 2.3 2.3 87 0.8 E 2 6 1 3 1022.4 1022.7 0.0
23/01:30am 5.0 3.5 3.0 87 0.8 CALM 0 6 0 3 1022.3 1022.6 0.0
23/01:00am 5.3 2.7 3.3 87 0.8 N 6 9 3 5 1022.1 1022.4 0.0
23/12:30am 5.4 3.9 3.1 85 1.0 CALM 0 0 0 0 1022.8 1023.1 0.0
23/12:00am 5.4 3.9 2.9 84 1.0 CALM 0 0 0 0 1023.1 1023.3 0.0
 
Date/Time
EST
Temp
°C
App
Temp
°C
Dew
Point
°C
Rel
Hum
%
Delta-T
°C
Wind Press
QNH
hPa
Press
MSL
hPa
Rain since
9am
mm
Dir  Spd
km/h
Gust
km/h
Spd
kts
Gust
kts
22/11:30pm 4.6 2.9 2.1 84 1.0 CALM 0 0 0 0 1023.4 1023.6 0.0
22/11:00pm 4.4 2.7 1.6 82 1.1 CALM 0 0 0 0 1023.7 1023.9 0.0
22/10:30pm 4.7 3.1 2.4 85 0.9 CALM 0 0 0 0 1023.8 1024.0 0.0
22/10:00pm 4.8 3.1 2.0 82 1.1 CALM 0 0 0 0 1023.9 1024.1 0.0
22/09:30pm 5.7 4.1 2.5 80 1.3 CALM 0 0 0 0 1024.2 1024.4 0.0
22/09:00pm 6.4 5.0 3.6 82 1.2 CALM 0 0 0 0 1024.4 1024.6 0.0
22/08:30pm 7.2 5.8 3.4 77 1.6 CALM 0 0 0 0 1024.7 1024.9 0.0
22/08:00pm 7.5 6.1 3.6 76 1.7 CALM 0 0 0 0 1024.5 1024.7 0.0
22/07:30pm 7.9 6.4 2.8 70 2.2 CALM 0 0 0 0 1024.3 1024.5 0.0
22/07:00pm 9.8 8.6 4.6 70 2.3 CALM 0 0 0 0 1024.3 1024.5 0.0
22/06:30pm 10.4 9.1 4.1 65 2.8 CALM 0 0 0 0 1024.1 1024.3 0.0
22/06:00pm 12.5 11.5 5.4 62 3.3 CALM 0 7 0 4 1024.0 1024.2 0.0
22/05:30pm 13.7 11.4 4.6 54 4.2 WSW 6 7 3 4 1024.0 1024.2 0.0
22/05:00pm 16.3 13.7 4.4 45 5.6 WNW 7 9 4 5 1023.9 1024.1 0.0
22/04:30pm 19.1 17.6 5.2 40 6.8 WNW 2 7 1 4 1023.9 1024.1 0.0
22/04:00pm 19.4 16.7 5.5 40 6.9 W 9 13 5 7 1024.0 1024.2 0.0
22/03:30pm 20.0 17.8 5.3 38 7.3 NNW 6 11 3 6 1024.1 1024.3 0.0
22/03:00pm 20.4 18.2 5.2 37 7.5 NW 6 11 3 6 1024.2 1024.4 0.0
22/02:30pm 20.1 16.9 5.0 37 7.5 N 11 15 6 8 1024.4 1024.6 0.0
22/02:00pm 20.2 17.0 5.1 37 7.4 WNW 11 19 6 10 1024.7 1024.9 0.0
22/01:30pm 19.6 16.0 4.9 38 7.2 NNW 13 26 7 14 1024.9 1025.1 0.0
22/01:00pm 20.0 17.4 6.0 40 7.0 NNE 9 15 5 8 1024.9 1025.1 0.0
22/12:30pm 19.4 16.0 5.8 41 6.8 NNE 13 17 7 9 1025.5 1025.7 0.0
22/12:00pm 18.0 14.3 6.2 46 5.8 N 15 22 8 12 1025.9 1026.1 0.0
22/11:30am 18.2 15.3 6.4 46 5.9 NNE 11 20 6 11 1026.6 1026.9 0.0
22/11:00am 17.3 15.0 7.4 52 5.0 NNE 9 13 5 7 1027.2 1027.5 0.0
22/10:30am 15.5 12.3 7.0 57 4.2 NNE 13 17 7 9 1027.7 1028.0 0.0
22/10:00am 14.9 12.3 7.9 63 3.5 NNE 11 19 6 10 1027.9 1028.1 0.0
22/09:30am 12.8 9.8 7.5 70 2.6 N 13 20 7 11 1028.0 1028.2 0.0
22/09:00am 11.1 7.7 7.6 79 1.7 N 15 22 8 12 1027.7 1028.0 0.0
22/08:30am 8.9 6.2 7.5 91 0.7 N 11 17 6 9 1027.6 1027.9 0.0
22/08:00am 5.5 3.0 4.8 95 0.3 N 7 11 4 6 1027.5 1027.8 0.0
22/07:30am 3.4 0.7 2.5 94 0.4 N 6 9 3 5 1027.3 1027.6 0.0
22/07:00am 3.0 0.0 2.0 93 0.4 N 7 9 4 5 1027.0 1027.3 0.0
22/06:30am 2.7 0.6 1.5 92 0.5 NNE 2 7 1 4 1026.7 1027.0 0.0
22/06:00am 2.1 -0.9 0.6 90 0.6 NNE 6 9 3 5 1026.6 1026.9 0.0
22/05:30am 2.9 0.4 1.3 89 0.6 NNE 4 7 2 4 1026.2 1026.5 0.0
22/05:00am 3.5 0.6 1.7 88 0.7 N 6 7 3 4 1026.0 1026.3 0.0
22/04:30am 3.4 0.5 1.4 87 0.8 NE 6 7 3 4 1025.8 1026.0 0.0
22/04:00am 3.2 0.1 1.1 86 0.8 NNE 7 9 4 5 1025.7 1025.9 0.0
22/03:30am 3.3 0.1 0.9 84 0.9 N 7 9 4 5 1025.7 1025.9 0.0
22/03:00am 3.5 0.3 0.9 83 1.0 N 7 11 4 6 1025.8 1026.0 0.0
22/02:30am 3.7 0.6 1.1 83 1.0 N 7 9 4 5 1026.0 1026.3 0.0
22/02:00am 3.9 0.8 1.1 82 1.1 N 7 9 4 5 1026.1 1026.4 0.0
22/01:30am 4.3 1.2 1.2 80 1.2 N 7 9 4 5 1026.0 1026.3 0.0
22/01:00am 4.5 1.6 1.4 80 1.2 N 6 9 3 5 1026.2 1026.5 0.0
22/12:30am 4.4 1.4 0.9 78 1.4 N 6 9 3 5 1026.4 1026.7 0.0
22/12:00am 5.4 2.9 1.7 77 1.5 N 4 7 2 4 1026.4 1026.7 0.0
 
Date/Time
EST
Temp
°C
App
Temp
°C
Dew
Point
°C
Rel
Hum
%
Delta-T
°C
Wind Press
QNH
hPa
Press
MSL
hPa
Rain since
9am
mm
Dir  Spd
km/h
Gust
km/h
Spd
kts
Gust
kts
21/11:30pm 5.6 2.8 1.9 77 1.5 N 6 7 3 4 1026.6 1026.9 0.0
21/11:00pm 6.5 3.6 2.4 75 1.7 N 7 13 4 7 1026.7 1027.0 0.0
21/10:30pm 6.6 3.3 2.5 75 1.7 N 9 11 5 6 1026.9 1027.2 0.0
21/10:00pm 7.1 3.9 2.8 74 1.8 N 9 15 5 8 1027.2 1027.5 0.0
21/09:30pm 6.3 3.2 1.4 71 2.0 N 7 9 4 5 1027.2 1027.5 0.0
21/09:00pm 7.6 4.6 2.1 68 2.3 N 7 11 4 6 1027.0 1027.3 0.0
21/08:30pm 8.0 5.0 2.0 66 2.5 N 7 9 4 5 1026.9 1027.2 0.0
21/08:00pm 8.1 5.1 1.7 64 2.6 N 7 13 4 7 1026.6 1026.9 0.0
21/07:30pm 9.0 5.6 1.7 60 3.1 N 9 13 5 7 1026.7 1027.0 0.0
21/07:00pm 9.3 5.9 1.7 59 3.2 N 9 11 5 6 1026.6 1026.9 0.0
21/06:30pm 9.1 6.0 1.3 58 3.2 N 7 9 4 5 1026.2 1026.5 0.0
21/06:00pm 11.4 8.1 2.2 53 4.0 N 9 11 5 6 1025.8 1026.0 0.0
21/05:30pm 12.6 8.8 1.9 48 4.7 N 11 13 6 7 1025.4 1025.6 0.0
21/05:00pm 15.0 11.2 1.9 41 5.8 N 11 13 6 7 1025.2 1025.4 0.0
21/04:30pm 16.8 11.8 1.3 35 6.9 N 17 24 9 13 1025.0 1025.2 0.0
21/04:00pm 17.8 13.1 0.9 32 7.5 NNW 15 20 8 11 1024.9 1025.1 0.0
21/03:30pm 18.7 13.6 0.8 30 8.0 NNW 17 22 9 12 1024.9 1025.1 0.0
21/03:00pm 18.8 13.9 -0.6 27 8.4 N 15 24 8 13 1024.9 1025.1 0.0
21/02:30pm 19.2 14.3 -0.7 26 8.7 NNW 15 26 8 14 1025.0 1025.2 0.0
21/02:00pm 18.5 13.5 1.1 31 7.8 NNW 17 22 9 12 1025.1 1025.3 0.0
21/01:30pm 18.5 14.1 2.8 35 7.3 N 15 20 8 11 1025.3 1025.5 0.0
21/01:00pm 18.6 14.3 3.3 36 7.2 N 15 24 8 13 1025.6 1025.8 0.0
21/12:30pm 17.9 13.5 2.6 36 7.1 N 15 24 8 13 1026.1 1026.4 0.0
21/12:00pm 17.5 13.0 4.1 41 6.3 N 17 22 9 12 1026.4 1026.7 0.0
21/11:30am 16.9 13.2 4.6 44 5.9 N 13 24 7 13 1026.9 1027.2 0.0
21/11:00am 15.5 12.0 5.4 51 4.8 N 13 20 7 11 1027.4 1027.7 0.0
21/10:30am 14.7 11.9 6.8 59 3.9 N 11 19 6 10 1027.6 1027.9 0.0
21/10:00am 13.0 11.0 7.0 67 2.9 N 7 13 4 7 1027.5 1027.8 0.0
21/09:30am 10.7 9.0 7.6 81 1.5 N 6 9 3 5 1027.4 1027.7 0.0
21/09:00am 8.6 6.9 7.5 93 0.5 N 6 7 3 4 1027.2 1027.5 0.0
21/08:30am 6.4 4.7 5.7 95 0.3 N 4 6 2 3 1026.9 1027.2 0.0
21/08:00am 3.7 1.1 3.0 95 0.3 N 6 7 3 4 1026.7 1027.0 0.0
21/07:30am 2.8 0.7 1.9 94 0.4 N 2 6 1 3 1026.5 1026.8 0.0
21/07:00am 3.5 1.2 2.6 94 0.4 N 4 7 2 4 1026.0 1026.3 0.0
21/06:30am 3.2 0.4 2.3 94 0.4 N 6 9 3 5 1025.8 1026.0 0.0
21/06:00am 3.6 0.9 2.7 94 0.4 N 6 7 3 4 1025.4 1025.6 0.0
21/05:30am 4.0 1.2 3.1 94 0.4 N 7 9 4 5 1025.2 1025.4 0.0
21/05:00am 3.9 1.1 2.9 93 0.4 N 7 9 4 5 1025.0 1025.2 0.0
21/04:30am 4.2 1.6 3.2 93 0.4 N 6 9 3 5 1024.9 1025.1 0.0
21/04:00am 3.3 0.3 1.8 90 0.6 N 7 7 4 4 1025.0 1025.2 0.0
21/03:30am 4.3 2.8 2.8 90 0.6 CALM 0 0 0 0 1024.9 1025.1 0.0
21/03:00am 5.2 3.8 3.7 90 0.6 CALM 0 0 0 0 1025.0 1025.2 0.0
21/02:30am 5.8 3.4 4.1 89 0.7 N 6 7 3 4 1025.3 1025.5 0.0
21/02:00am 6.5 4.2 4.7 88 0.8 N 6 7 3 4 1025.2 1025.4 0.0
21/01:30am 6.8 4.5 5.0 88 0.8 N 6 7 3 4 1025.5 1025.7 0.0
21/01:00am 6.9 4.6 4.9 87 0.9 N 6 9 3 5 1025.4 1025.6 0.0
21/12:30am 7.1 4.8 4.8 85 1.0 N 6 9 3 5 1025.5 1025.7 0.0
21/12:00am 7.3 4.8 4.6 83 1.2 N 7 9 4 5 1025.7 1025.9 0.0
 
Date/Time
EST
Temp
°C
App
Temp
°C
Dew
Point
°C
Rel
Hum
%
Delta-T
°C
Wind Press
QNH
hPa
Press
MSL
hPa
Rain since
9am
mm
Dir  Spd
km/h
Gust
km/h
Spd
kts
Gust
kts
20/11:30pm 8.1 5.3 5.0 81 1.4 N 9 11 5 6 1026.1 1026.4 0.0
20/11:00pm 8.3 5.5 5.1 80 1.4 N 9 13 5 7 1026.2 1026.5 0.0
20/10:30pm 9.2 6.8 5.2 76 1.8 N 7 11 4 6 1026.3 1026.6 0.0
20/10:00pm 10.7 8.1 5.9 72 2.2 N 9 17 5 9 1026.2 1026.5 0.0
20/09:30pm 12.2 9.3 6.7 69 2.7 N 11 15 6 8 1026.2 1026.5 0.0
20/09:00pm 12.2 9.3 6.7 69 2.6 N 11 15 6 8 1026.3 1026.6 0.0
20/08:30pm 12.3 9.9 7.0 70 2.6 N 9 15 5 8 1026.3 1026.6 0.0

Other Formats:

Comma delimited format used in spreadsheet applications
http://www.bom.gov.au/fwo/IDN60801/IDN60801.95710.axf

JavaScript Object Notation format (JSON) in row-major order
http://www.bom.gov.au/fwo/IDN60801/IDN60801.95710.json